Time;durP1;ratioP1;P1;durP2;ratioP2;P2;SDS_P1;SDS_P2;PMS_P1;PMS_P2;Temp;Humidity;BMP_temperature;BMP_pressure;BME280_temperature;BME280_humidity;BME280_pressure;Samples;Min_cycle;Max_cycle;Signal;HPM_P1;HPM_P2
2024/01/15 00:02:12;;;;;;;2.80;1.85;;;21.70;48.20;;;;;;5039730;28;20034;-69
2024/01/15 00:04:38;;;;;;;2.88;1.63;;;21.70;48.20;;;;;;5042681;28;20021;-69
2024/01/15 00:07:05;;;;;;;3.60;2.00;;;21.70;48.20;;;;;;5037927;28;20021;-69
2024/01/15 00:09:30;;;;;;;3.47;1.90;;;21.60;48.20;;;;;;5040176;28;20072;-69
2024/01/15 00:11:56;;;;;;;2.85;1.92;;;21.60;48.20;;;;;;5039493;28;20021;-69
2024/01/15 00:14:22;;;;;;;4.07;2.20;;;21.60;48.20;;;;;;5038732;28;20021;-69
2024/01/15 00:16:50;;;;;;;3.25;1.90;;;21.60;48.30;;;;;;5040689;28;20029;-69
2024/01/15 00:19:16;;;;;;;3.30;2.08;;;21.60;48.30;;;;;;5036476;28;20439;-72
2024/01/15 00:21:42;;;;;;;3.63;1.85;;;21.50;48.20;;;;;;5037533;28;20021;-69
2024/01/15 00:24:08;;;;;;;4.78;2.40;;;21.50;48.30;;;;;;5039586;28;20481;-69
2024/01/15 00:26:33;;;;;;;3.22;2.10;;;21.50;48.30;;;;;;5040809;28;20044;-65
2024/01/15 00:28:59;;;;;;;3.22;2.25;;;21.50;48.30;;;;;;5041716;28;20025;-65
2024/01/15 00:31:25;;;;;;;3.08;2.08;;;21.50;48.30;;;;;;5044085;28;20025;-65
2024/01/15 00:33:50;;;;;;;3.67;2.03;;;21.50;48.30;;;;;;5038739;28;20440;-65
2024/01/15 00:36:16;;;;;;;5.03;2.10;;;21.40;48.30;;;;;;5040331;28;20048;-64
2024/01/15 00:38:43;;;;;;;3.90;1.90;;;21.40;48.40;;;;;;5019713;28;20043;-65
2024/01/15 00:41:09;;;;;;;3.88;2.03;;;21.40;48.40;;;;;;5039946;28;20028;-66
2024/01/15 00:43:34;;;;;;;3.85;2.40;;;21.40;48.90;;;;;;5040610;28;20033;-67
2024/01/15 00:46:02;;;;;;;3.35;1.90;;;21.40;48.40;;;;;;5039413;28;20060;-67
2024/01/15 00:48:28;;;;;;;3.40;2.13;;;21.30;48.40;;;;;;5039453;28;20058;-67
2024/01/15 00:50:54;;;;;;;3.42;1.90;;;21.30;48.40;;;;;;5039956;28;20032;-68
2024/01/15 00:53:21;;;;;;;3.38;1.90;;;21.30;48.40;;;;;;5039224;28;20026;-67
2024/01/15 00:55:48;;;;;;;3.63;1.80;;;21.30;48.40;;;;;;5038582;28;20097;-67
2024/01/15 00:58:13;;;;;;;2.72;1.70;;;21.30;48.40;;;;;;5038146;28;20032;-67
2024/01/15 01:00:39;;;;;;;3.05;1.90;;;21.30;48.40;;;;;;5039998;28;20046;-67
2024/01/15 01:03:04;;;;;;;4.22;2.30;;;21.20;48.40;;;;;;5038755;28;20109;-67
2024/01/15 01:05:30;;;;;;;2.85;1.83;;;21.20;48.50;;;;;;5037799;28;20112;-67
2024/01/15 01:07:56;;;;;;;2.42;1.70;;;21.20;48.50;;;;;;5039861;28;20067;-67
2024/01/15 01:10:21;;;;;;;3.20;1.90;;;21.20;48.50;;;;;;5039571;28;20032;-68
2024/01/15 01:12:47;;;;;;;2.50;1.70;;;21.20;48.50;;;;;;5041188;28;20026;-67
2024/01/15 01:15:12;;;;;;;3.55;1.90;;;21.20;48.50;;;;;;5040612;28;20162;-67
2024/01/15 01:17:38;;;;;;;2.88;1.85;;;21.10;48.50;;;;;;5036925;28;20326;-68
2024/01/15 01:20:06;;;;;;;2.92;1.90;;;21.10;48.50;;;;;;5038452;28;20040;-67
2024/01/15 01:22:31;;;;;;;3.22;2.00;;;21.10;48.50;;;;;;5037914;28;20021;-67
2024/01/15 01:24:57;;;;;;;3.00;1.95;;;21.10;48.50;;;;;;5036735;28;20029;-65
2024/01/15 01:27:22;;;;;;;3.28;1.92;;;21.10;48.50;;;;;;5038318;28;20025;-65
2024/01/15 01:29:48;;;;;;;2.90;1.90;;;21.00;48.50;;;;;;5039170;28;20026;-65
2024/01/15 01:32:14;;;;;;;3.70;2.10;;;21.00;48.50;;;;;;5041146;28;20432;-65
2024/01/15 01:34:42;;;;;;;3.75;2.10;;;21.00;48.50;;;;;;5037961;28;20091;-64
2024/01/15 01:37:08;;;;;;;3.05;2.00;;;21.00;48.60;;;;;;5040702;28;20029;-64
2024/01/15 01:39:34;;;;;;;3.22;1.90;;;21.00;49.10;;;;;;5036529;28;20091;-65
2024/01/15 01:41:59;;;;;;;3.50;1.90;;;21.00;48.60;;;;;;5037313;28;20115;-64
2024/01/15 01:44:25;;;;;;;3.50;2.00;;;20.90;48.60;;;;;;5038509;28;20616;-65
2024/01/15 01:46:51;;;;;;;3.78;2.08;;;20.90;48.60;;;;;;5039229;28;20029;-65
2024/01/15 01:49:17;;;;;;;2.95;1.90;;;20.90;48.60;;;;;;5038620;28;20516;-64
2024/01/15 01:51:43;;;;;;;3.70;1.88;;;20.90;48.60;;;;;;5037779;28;20481;-65
2024/01/15 01:54:11;;;;;;;3.47;2.30;;;20.90;48.70;;;;;;5039471;28;20041;-64
2024/01/15 01:56:37;;;;;;;3.20;2.10;;;20.90;48.70;;;;;;5037977;28;20079;-65
2024/01/15 01:59:04;;;;;;;3.15;2.03;;;20.80;48.70;;;;;;5039561;28;20367;-65
2024/01/15 02:01:31;;;;;;;3.10;1.77;;;20.80;48.70;;;;;;5036728;28;20038;-66
2024/01/15 02:03:57;;;;;;;2.90;1.90;;;20.80;48.70;;;;;;5031852;28;20072;-64
2024/01/15 02:06:23;;;;;;;2.20;1.55;;;20.70;48.70;;;;;;5038702;28;20025;-66
2024/01/15 02:08:50;;;;;;;2.40;1.40;;;20.80;48.80;;;;;;5038107;28;20076;-64
2024/01/15 02:11:15;;;;;;;2.90;1.83;;;20.70;48.80;;;;;;5039278;28;20539;-65
2024/01/15 02:13:41;;;;;;;2.40;1.60;;;20.70;48.80;;;;;;5037525;28;20026;-65
2024/01/15 02:16:07;;;;;;;2.80;2.00;;;20.70;48.80;;;;;;5036573;28;20507;-64
2024/01/15 02:18:43;;;;;;;2.88;2.13;;;20.70;48.80;;;;;;5036611;28;20367;-65
2024/01/15 02:21:09;;;;;;;2.95;1.73;;;20.70;48.80;;;;;;5038983;28;20055;-66
2024/01/15 02:23:35;;;;;;;2.47;1.52;;;20.70;48.80;;;;;;5038047;28;20151;-65
2024/01/15 02:26:01;;;;;;;3.00;1.85;;;20.70;48.90;;;;;;5038222;28;20108;-65
2024/01/15 02:28:27;;;;;;;2.90;1.77;;;20.60;49.30;;;;;;5037271;28;20477;-65
2024/01/15 02:30:52;;;;;;;2.75;2.00;;;20.60;48.80;;;;;;5036828;28;20056;-66
2024/01/15 02:33:18;;;;;;;2.97;1.92;;;20.60;48.90;;;;;;5034916;28;20021;-64
2024/01/15 02:35:46;;;;;;;3.40;1.88;;;20.60;48.90;;;;;;5039516;28;20668;-69
2024/01/15 02:38:11;;;;;;;2.78;1.85;;;20.50;48.90;;;;;;5038011;28;20080;-69
2024/01/15 02:40:39;;;;;;;2.63;1.80;;;20.60;49.00;;;;;;5037508;28;20033;-69
2024/01/15 02:43:05;;;;;;;2.40;1.60;;;20.50;49.00;;;;;;5036983;28;20055;-69
2024/01/15 02:45:30;;;;;;;3.15;1.90;;;20.50;49.00;;;;;;5037242;28;20133;-69
2024/01/15 02:47:56;;;;;;;2.65;1.80;;;20.50;49.00;;;;;;5038742;28;20035;-69
2024/01/15 02:50:21;;;;;;;2.63;1.70;;;20.50;49.00;;;;;;5034915;28;20033;-69
2024/01/15 02:52:47;;;;;;;2.53;1.70;;;20.50;49.00;;;;;;5035799;28;20025;-69
2024/01/15 02:55:13;;;;;;;2.15;1.50;;;20.50;49.10;;;;;;5035111;28;20033;-69
2024/01/15 02:57:38;;;;;;;3.03;1.77;;;20.40;49.00;;;;;;5039852;28;20032;-69
2024/01/15 03:00:05;;;;;;;2.40;1.70;;;20.40;49.00;;;;;;5037394;28;20021;-69
2024/01/15 03:02:33;;;;;;;2.65;1.60;;;20.40;49.00;;;;;;5037439;28;20037;-69
2024/01/15 03:04:58;;;;;;;2.70;1.80;;;20.40;49.10;;;;;;5035644;28;20098;-65
2024/01/15 03:07:24;;;;;;;3.10;1.90;;;20.40;49.60;;;;;;5040906;28;20584;-65
2024/01/15 03:09:50;;;;;;;2.60;1.80;;;20.40;49.10;;;;;;5036660;28;20033;-65
2024/01/15 03:12:16;;;;;;;2.80;1.67;;;20.40;49.10;;;;;;5036958;28;20084;-65
2024/01/15 03:14:42;;;;;;;2.13;1.45;;;20.40;49.20;;;;;;5037174;28;20051;-64
2024/01/15 03:17:09;;;;;;;2.50;1.60;;;20.30;49.10;;;;;;5036972;28;20068;-67
2024/01/15 03:19:35;;;;;;;1.92;1.30;;;20.30;49.10;;;;;;5033010;28;20896;-64
2024/01/15 03:22:02;;;;;;;2.80;1.80;;;20.30;49.10;;;;;;5036665;28;20021;-64
2024/01/15 03:24:28;;;;;;;2.85;1.70;;;20.30;49.10;;;;;;5036150;28;20545;-65
2024/01/15 03:26:53;;;;;;;2.47;1.63;;;20.30;49.10;;;;;;5036343;28;20031;-65
2024/01/15 03:29:19;;;;;;;2.78;1.70;;;20.30;49.20;;;;;;5036826;28;20490;-65
2024/01/15 03:31:44;;;;;;;2.35;1.70;;;20.20;49.10;;;;;;5036155;28;20022;-66
2024/01/15 03:34:10;;;;;;;2.80;1.70;;;20.30;49.20;;;;;;5032782;28;20442;-64
2024/01/15 03:36:36;;;;;;;2.95;1.70;;;20.30;49.20;;;;;;5036218;28;20033;-65
2024/01/15 03:39:02;;;;;;;2.40;1.73;;;20.20;49.20;;;;;;5036924;28;20056;-65
2024/01/15 03:41:28;;;;;;;2.33;1.60;;;20.20;49.20;;;;;;5038839;28;20033;-65
2024/01/15 03:43:53;;;;;;;2.30;1.52;;;20.20;49.20;;;;;;5041735;28;20116;-66
2024/01/15 03:46:19;;;;;;;2.42;1.60;;;20.20;49.20;;;;;;5042824;28;20454;-67
2024/01/15 03:48:44;;;;;;;2.30;1.60;;;20.20;49.30;;;;;;5039330;28;20059;-68
2024/01/15 03:51:10;;;;;;;2.38;1.50;;;20.20;49.30;;;;;;5041151;28;20022;-67
2024/01/15 03:53:36;;;;;;;2.13;1.40;;;20.20;49.30;;;;;;5042273;28;20112;-67
2024/01/15 03:56:01;;;;;;;2.42;1.60;;;20.20;49.40;;;;;;5038255;28;20575;-65
2024/01/15 03:58:27;;;;;;;2.10;1.38;;;20.20;49.30;;;;;;5042823;28;20032;-66
2024/01/15 04:00:54;;;;;;;2.55;1.50;;;20.20;49.40;;;;;;5040949;28;20045;-65
2024/01/15 04:03:19;;;;;;;2.25;1.60;;;20.10;49.40;;;;;;5042217;28;20029;-65
2024/01/15 04:05:45;;;;;;;2.10;1.30;;;20.10;49.40;;;;;;5036874;28;20474;-64
2024/01/15 04:08:10;;;;;;;2.05;1.42;;;20.10;49.40;;;;;;5041313;28;20060;-65
2024/01/15 04:10:36;;;;;;;1.83;1.30;;;20.10;49.40;;;;;;5041643;28;20132;-64
2024/01/15 04:13:03;;;;;;;2.28;1.35;;;20.10;49.40;;;;;;5033302;28;20025;-65
2024/01/15 04:15:29;;;;;;;2.47;1.40;;;20.10;49.50;;;;;;5040514;28;20025;-67
2024/01/15 04:17:54;;;;;;;1.98;1.33;;;20.00;49.50;;;;;;5044644;28;20440;-68
2024/01/15 04:20:20;;;;;;;2.03;1.30;;;20.00;49.50;;;;;;5037987;28;20035;-67
2024/01/15 04:22:45;;;;;;;2.20;1.40;;;20.00;49.50;;;;;;5038294;28;20240;-68
2024/01/15 04:25:11;;;;;;;2.00;1.30;;;20.00;49.50;;;;;;5036764;28;20083;-67
2024/01/15 04:27:37;;;;;;;2.03;1.20;;;20.00;49.60;;;;;;5041955;28;20032;-67
2024/01/15 04:30:03;;;;;;;1.77;1.33;;;20.00;49.50;;;;;;5040191;28;20021;-67
2024/01/15 04:32:28;;;;;;;2.15;1.20;;;19.90;49.50;;;;;;5039600;28;20125;-67
2024/01/15 04:34:55;;;;;;;2.22;1.30;;;19.90;50.10;;;;;;5039937;28;20017;-68
2024/01/15 04:37:21;;;;;;;1.95;1.38;;;19.90;49.60;;;;;;5045809;28;20035;-67
2024/01/15 04:39:46;;;;;;;2.15;1.30;;;19.90;49.60;;;;;;5039430;28;20463;-67
2024/01/15 04:42:12;;;;;;;2.33;1.40;;;19.90;49.70;;;;;;5037352;28;20048;-67
2024/01/15 04:44:37;;;;;;;1.63;1.10;;;19.90;49.70;;;;;;5041496;28;20421;-67
2024/01/15 04:47:03;;;;;;;1.63;1.27;;;19.90;49.70;;;;;;5040643;28;20493;-67
2024/01/15 04:49:29;;;;;;;1.33;1.10;;;19.90;49.70;;;;;;5037687;28;20095;-67
2024/01/15 04:51:55;;;;;;;2.10;1.40;;;19.80;49.70;;;;;;5038097;28;20106;-67
2024/01/15 04:54:21;;;;;;;2.00;1.30;;;19.80;49.70;;;;;;5039750;28;20442;-67
2024/01/15 04:56:46;;;;;;;2.00;1.20;;;19.90;49.80;;;;;;5039390;28;20110;-68
2024/01/15 04:59:13;;;;;;;2.00;1.30;;;19.80;49.70;;;;;;5040342;28;20094;-68
2024/01/15 05:01:38;;;;;;;1.90;1.30;;;19.80;49.70;;;;;;5041078;28;20544;-67
2024/01/15 05:04:04;;;;;;;1.58;1.20;;;19.80;49.80;;;;;;5039682;28;20051;-67
2024/01/15 05:06:30;;;;;;;1.65;1.20;;;19.80;49.80;;;;;;5035423;28;20079;-68
2024/01/15 05:08:55;;;;;;;2.17;1.20;;;19.80;49.80;;;;;;5039626;28;20107;-68
2024/01/15 05:11:21;;;;;;;1.88;1.23;;;19.80;49.80;;;;;;5039539;28;20022;-68
2024/01/15 05:13:47;;;;;;;2.00;1.30;;;19.80;49.90;;;;;;5036758;28;20025;-68
2024/01/15 05:16:12;;;;;;;1.55;1.10;;;19.80;49.90;;;;;;5037573;28;20052;-68
2024/01/15 05:18:38;;;;;;;1.90;1.30;;;19.70;49.90;;;;;;5036964;28;20914;-68
2024/01/15 05:21:04;;;;;;;2.20;1.40;;;19.70;50.40;;;;;;5034918;28;20029;-68
2024/01/15 05:23:31;;;;;;;1.50;1.13;;;19.70;49.90;;;;;;5040772;28;20034;-68
2024/01/15 05:25:57;;;;;;;1.92;1.30;;;19.70;49.90;;;;;;5037791;28;20481;-69
2024/01/15 05:28:23;;;;;;;1.75;1.20;;;19.70;49.90;;;;;;5041242;28;20032;-68
2024/01/15 05:30:50;;;;;;;1.92;1.30;;;19.80;50.00;;;;;;5038595;28;20029;-68
2024/01/15 05:33:16;;;;;;;1.85;1.20;;;19.70;49.90;;;;;;5038000;28;20022;-69
2024/01/15 05:35:42;;;;;;;2.30;1.30;;;19.70;50.00;;;;;;5034954;28;20021;-68
2024/01/15 05:38:07;;;;;;;2.00;1.38;;;19.70;50.00;;;;;;5039304;28;20032;-69
2024/01/15 05:40:33;;;;;;;1.98;1.40;;;19.70;50.00;;;;;;5038441;28;20401;-68
2024/01/15 05:42:59;;;;;;;1.77;1.35;;;19.70;50.00;;;;;;5038766;28;20132;-68
2024/01/15 05:45:26;;;;;;;2.17;1.40;;;19.70;50.00;;;;;;5038766;28;20063;-68
2024/01/15 05:47:52;;;;;;;2.13;1.52;;;19.70;50.10;;;;;;5035724;28;20516;-69
2024/01/15 05:50:18;;;;;;;1.83;1.25;;;19.70;50.10;;;;;;5036000;28;20018;-68
2024/01/15 05:52:43;;;;;;;2.25;1.30;;;19.70;50.10;;;;;;5037399;28;20405;-68
2024/01/15 05:55:09;;;;;;;2.25;1.40;;;19.70;50.10;;;;;;5038882;28;20378;-68
2024/01/15 05:57:36;;;;;;;2.20;1.30;;;19.70;50.20;;;;;;5037261;28;20029;-68
2024/01/15 06:00:02;;;;;;;2.05;1.33;;;19.60;50.10;;;;;;5039195;28;20037;-68
2024/01/15 06:02:28;;;;;;;1.67;1.20;;;19.70;50.20;;;;;;5039392;28;20025;-68
2024/01/15 06:04:53;;;;;;;2.17;1.33;;;19.60;50.20;;;;;;5037233;28;20414;-68
2024/01/15 06:07:19;;;;;;;2.17;1.30;;;19.60;50.20;;;;;;5038542;28;20408;-68
2024/01/15 06:09:45;;;;;;;1.88;1.30;;;19.60;50.20;;;;;;5036104;28;20037;-68
2024/01/15 06:12:10;;;;;;;1.83;1.40;;;19.60;50.20;;;;;;5037259;28;20568;-68
2024/01/15 06:14:36;;;;;;;2.10;1.27;;;19.60;50.20;;;;;;5036269;28;20120;-68
2024/01/15 06:17:01;;;;;;;3.08;1.30;;;19.60;50.30;;;;;;5038011;28;20025;-68
2024/01/15 06:19:27;;;;;;;2.55;1.50;;;19.60;50.30;;;;;;5036458;28;20477;-68
2024/01/15 06:21:52;;;;;;;2.58;1.30;;;19.60;50.30;;;;;;5036517;28;20041;-68
2024/01/15 06:24:20;;;;;;;1.90;1.20;;;19.60;50.80;;;;;;5037821;28;20068;-68
2024/01/15 06:26:46;;;;;;;2.40;1.50;;;19.60;50.30;;;;;;5036014;28;20478;-68
2024/01/15 06:29:12;;;;;;;2.60;1.48;;;19.60;50.30;;;;;;5040728;28;20036;-68
2024/01/15 06:31:37;;;;;;;2.20;1.40;;;19.60;50.30;;;;;;5038652;28;20108;-67
2024/01/15 06:34:03;;;;;;;2.03;1.20;;;19.60;50.50;;;;;;5038906;28;20025;-68
2024/01/15 06:36:29;;;;;;;2.65;1.70;;;19.60;50.40;;;;;;5035691;28;20047;-68
2024/01/15 06:38:54;;;;;;;2.00;1.35;;;19.60;50.40;;;;;;5037572;28;20104;-68
2024/01/15 06:41:20;;;;;;;2.60;1.42;;;19.60;50.40;;;;;;5035123;28;20021;-68
2024/01/15 06:43:46;;;;;;;2.08;1.40;;;19.60;50.40;;;;;;5036577;28;20493;-68
2024/01/15 06:46:11;;;;;;;2.50;1.65;;;19.60;50.40;;;;;;5039155;28;20027;-68
2024/01/15 06:48:37;;;;;;;2.00;1.35;;;19.60;50.50;;;;;;5036708;28;20923;-68
2024/01/15 06:51:03;;;;;;;2.20;1.50;;;19.60;50.50;;;;;;5036893;28;20436;-68
2024/01/15 06:53:28;;;;;;;2.40;1.40;;;19.50;50.40;;;;;;5039258;28;20037;-68
2024/01/15 06:55:54;;;;;;;1.90;1.35;;;19.60;50.60;;;;;;5037803;28;20537;-68
2024/01/15 06:58:19;;;;;;;2.45;1.30;;;19.50;50.50;;;;;;5037261;28;20038;-68
2024/01/15 07:00:45;;;;;;;2.58;1.45;;;19.50;50.50;;;;;;5033425;28;20501;-68
2024/01/15 07:03:10;;;;;;;2.30;1.48;;;19.50;50.50;;;;;;5038962;28;20087;-68
2024/01/15 07:05:37;;;;;;;2.40;1.33;;;19.50;50.50;;;;;;5037364;28;20136;-68
2024/01/15 07:08:03;;;;;;;2.20;1.20;;;19.50;50.50;;;;;;5036163;28;20034;-68
2024/01/15 07:10:32;;;;;;;2.17;1.30;;;19.50;50.50;;;;;;5036584;28;20086;-68
2024/01/15 07:12:57;;;;;;;2.07;1.40;;;19.50;50.50;;;;;;5038957;28;20025;-68
2024/01/15 07:15:23;;;;;;;1.90;1.10;;;19.50;50.50;;;;;;5035990;28;20255;-68
2024/01/15 07:17:49;;;;;;;2.60;1.45;;;19.50;50.60;;;;;;5040371;28;20029;-68
2024/01/15 07:20:15;;;;;;;1.85;1.20;;;19.50;50.50;;;;;;5041789;28;20374;-68
2024/01/15 07:22:41;;;;;;;1.98;1.23;;;19.50;50.60;;;;;;5037250;28;20033;-68
2024/01/15 07:25:06;;;;;;;2.50;1.40;;;19.50;50.50;;;;;;5042390;28;20041;-68
2024/01/15 07:27:32;;;;;;;3.28;1.42;;;19.50;50.60;;;;;;5041214;28;20060;-68
2024/01/15 07:29:58;;;;;;;4.05;1.70;;;19.50;50.60;;;;;;5043210;28;20108;-68
2024/01/15 07:32:24;;;;;;;2.03;1.40;;;19.40;50.50;;;;;;5041849;28;20040;-68
2024/01/15 07:34:49;;;;;;;2.28;1.40;;;19.50;50.60;;;;;;5042586;28;20025;-68
2024/01/15 07:37:15;;;;;;;2.05;1.30;;;19.50;50.60;;;;;;5037689;28;20051;-68
2024/01/15 07:39:41;;;;;;;1.88;1.30;;;19.50;50.60;;;;;;5040597;28;20239;-68
2024/01/15 07:42:07;;;;;;;2.03;1.30;;;19.40;50.50;;;;;;5039654;28;20033;-68
2024/01/15 07:44:33;;;;;;;4.00;1.50;;;19.40;50.60;;;;;;5039119;28;20361;-68
2024/01/15 07:46:58;;;;;;;2.08;1.30;;;19.40;50.60;;;;;;5039751;28;20033;-68
2024/01/15 07:49:24;;;;;;;2.08;1.30;;;19.40;50.60;;;;;;5038075;28;20022;-68
2024/01/15 07:51:50;;;;;;;2.00;1.40;;;19.40;50.60;;;;;;5039287;28;20065;-68
2024/01/15 07:54:15;;;;;;;2.22;1.40;;;19.40;50.60;;;;;;5040002;28;20049;-68
2024/01/15 07:56:58;;;;;;;2.25;1.27;;;19.40;50.60;;;;;;5038685;28;20029;-68
2024/01/15 07:59:25;;;;;;;2.40;1.50;;;19.40;50.60;;;;;;5040915;28;20029;-69
2024/01/15 08:01:52;;;;;;;2.38;1.50;;;19.40;50.60;;;;;;5039594;28;20112;-69
2024/01/15 08:04:18;;;;;;;2.13;1.15;;;19.40;50.60;;;;;;5041114;28;20037;-69
2024/01/15 08:06:44;;;;;;;1.80;1.20;;;19.40;50.60;;;;;;5037427;28;20480;-68
2024/01/15 08:09:10;;;;;;;3.17;1.60;;;19.40;50.70;;;;;;5040984;28;20502;-68
2024/01/15 08:11:38;;;;;;;2.40;1.30;;;19.40;50.60;;;;;;5040112;28;20021;-69
2024/01/15 08:14:04;;;;;;;2.22;1.40;;;19.40;50.70;;;;;;5040520;28;20032;-68
2024/01/15 08:16:30;;;;;;;2.88;1.40;;;19.40;50.70;;;;;;5041160;28;20112;-68
2024/01/15 08:18:56;;;;;;;3.10;1.55;;;19.40;50.70;;;;;;5042861;28;20114;-69
2024/01/15 08:21:22;;;;;;;2.65;1.40;;;19.40;50.70;;;;;;5036091;28;20108;-69
2024/01/15 08:23:47;;;;;;;2.80;1.50;;;19.40;50.70;;;;;;5034413;28;20109;-69
2024/01/15 08:26:13;;;;;;;2.58;1.30;;;19.40;50.70;;;;;;5040071;28;20026;-69
2024/01/15 08:28:38;;;;;;;2.60;1.35;;;19.40;50.70;;;;;;5038503;28;20116;-69
2024/01/15 08:31:04;;;;;;;1.95;1.30;;;19.40;50.70;;;;;;5039208;28;20478;-69
2024/01/15 08:33:30;;;;;;;2.67;1.38;;;19.40;50.70;;;;;;5041811;28;20114;-69
2024/01/15 08:35:56;;;;;;;2.63;1.23;;;19.40;50.70;;;;;;5036851;28;20017;-69
2024/01/15 08:38:21;;;;;;;2.00;1.20;;;19.40;50.70;;;;;;5039430;28;20053;-66
2024/01/15 08:40:49;;;;;;;2.25;1.33;;;19.40;50.70;;;;;;5038582;28;20071;-65
2024/01/15 08:43:15;;;;;;;2.67;1.45;;;19.40;50.70;;;;;;5039685;28;20033;-66
2024/01/15 08:45:40;;;;;;;4.00;1.50;;;19.40;50.70;;;;;;5040898;28;20401;-66
2024/01/15 08:48:06;;;;;;;2.22;1.35;;;19.40;50.70;;;;;;5041026;28;20036;-64
2024/01/15 08:50:32;;;;;;;2.25;1.30;;;19.30;50.70;;;;;;5039908;28;20089;-63
2024/01/15 08:52:58;;;;;;;1.95;1.20;;;19.30;50.70;;;;;;5038073;28;20033;-64
2024/01/15 08:55:24;;;;;;;2.40;1.40;;;19.30;50.70;;;;;;5039422;28;20139;-65
2024/01/15 08:57:50;;;;;;;2.20;1.30;;;19.40;50.70;;;;;;5039729;28;20037;-68
2024/01/15 09:00:16;;;;;;;2.10;1.42;;;19.30;51.20;;;;;;5040352;28;20118;-68
2024/01/15 09:02:42;;;;;;;2.33;1.30;;;19.30;50.70;;;;;;5039508;28;20488;-68
2024/01/15 09:05:08;;;;;;;2.78;1.40;;;19.30;50.70;;;;;;5039104;28;20039;-68
2024/01/15 09:07:33;;;;;;;2.50;1.50;;;19.30;50.70;;;;;;5037580;28;20028;-68
2024/01/15 09:09:59;;;;;;;2.00;1.30;;;19.30;50.70;;;;;;5041034;28;20430;-68
2024/01/15 09:12:29;;;;;;;1.98;1.20;;;19.30;50.70;;;;;;5039120;28;20029;-68
2024/01/15 09:14:55;;;;;;;;;;;19.30;50.70;;;;;;5038045;28;20022;-68
2024/01/15 09:17:23;;;;;;;1.90;1.10;;;19.30;50.70;;;;;;5039287;28;19909;-68
2024/01/15 09:19:49;;;;;;;2.28;1.33;;;19.30;50.70;;;;;;5039338;28;20454;-68
2024/01/15 09:22:18;;;;;;;2.60;1.40;;;19.30;50.70;;;;;;5039050;28;20086;-68
2024/01/15 09:24:44;;;;;;;2.28;1.40;;;19.30;50.70;;;;;;5041424;28;20021;-68
2024/01/15 09:27:09;;;;;;;1.70;1.05;;;19.30;50.70;;;;;;5039473;28;20024;-68
2024/01/15 09:29:39;;;;;;;2.95;1.48;;;19.30;50.70;;;;;;5039175;28;20400;-68
2024/01/15 09:32:05;;;;;;;2.63;1.20;;;19.30;50.70;;;;;;5038497;28;20060;-68
2024/01/15 09:34:31;;;;;;;2.58;1.15;;;19.30;50.80;;;;;;5038453;28;20033;-68
2024/01/15 09:36:56;;;;;;;1.70;1.20;;;19.30;50.70;;;;;;5035470;28;20048;-68
2024/01/15 09:39:23;;;;;;;2.40;1.33;;;19.30;50.80;;;;;;5040108;28;20041;-68
2024/01/15 09:41:49;;;;;;;2.30;1.30;;;19.30;50.80;;;;;;5039880;28;20032;-68
2024/01/15 09:44:16;;;;;;;2.22;1.50;;;19.30;50.70;;;;;;5038460;28;20037;-68
2024/01/15 09:46:44;;;;;;;1.92;1.25;;;19.20;50.70;;;;;;5037105;28;20034;-67
2024/01/15 09:49:10;;;;;;;1.65;1.20;;;19.30;50.80;;;;;;5038027;28;20025;-68
2024/01/15 09:51:37;;;;;;;2.38;1.30;;;19.30;50.80;;;;;;5037210;28;20133;-68
2024/01/15 09:54:03;;;;;;;2.53;1.25;;;19.20;50.70;;;;;;5038579;28;20036;-68
2024/01/15 09:56:31;;;;;;;2.15;1.30;;;19.20;50.70;;;;;;5035913;28;20347;-68
2024/01/15 09:58:57;;;;;;;2.03;1.30;;;19.20;50.70;;;;;;5039490;28;20444;-68
2024/01/15 10:01:23;;;;;;;1.90;1.20;;;19.20;50.70;;;;;;5038257;28;20113;-68
2024/01/15 10:03:50;;;;;;;2.22;1.20;;;19.20;50.80;;;;;;5036927;28;20417;-67
2024/01/15 10:06:19;;;;;;;2.45;1.40;;;19.20;50.70;;;;;;5034370;28;20032;-65
2024/01/15 10:08:49;;;;;;;1.75;1.00;;;19.20;50.70;;;;;;5037336;28;20075;-64
2024/01/15 10:11:16;;;;;;;2.40;1.25;;;19.20;50.70;;;;;;5039974;28;20064;-64
2024/01/15 10:13:44;;;;;;;2.05;1.48;;;19.20;50.80;;;;;;5037089;28;20021;-65
2024/01/15 10:16:10;;;;;;;2.10;1.08;;;19.20;50.70;;;;;;5039260;28;20465;-66
2024/01/15 10:18:36;;;;;;;1.83;1.13;;;19.20;50.70;;;;;;5038760;28;20087;-64
2024/01/15 10:21:08;;;;;;;2.03;1.25;;;19.20;50.70;;;;;;5038295;28;20033;-65
2024/01/15 10:23:34;;;;;;;2.30;1.20;;;19.20;50.80;;;;;;5036809;28;20033;-65
2024/01/15 10:26:00;;;;;;;1.95;1.20;;;19.20;50.80;;;;;;5037737;28;20041;-64
2024/01/15 10:28:27;;;;;;;2.15;1.35;;;19.20;50.80;;;;;;5039005;28;20365;-65
2024/01/15 10:30:54;;;;;;;2.17;1.27;;;19.20;50.80;;;;;;5036819;28;20047;-64
2024/01/15 10:33:25;;;;;;;1.83;1.13;;;19.20;51.30;;;;;;5036269;28;20685;-64
2024/01/15 10:35:55;;;;;;;2.50;1.30;;;19.20;50.80;;;;;;5037416;28;20036;-65
2024/01/15 10:38:24;;;;;;;1.83;1.20;;;19.20;50.80;;;;;;5036764;28;20038;-63
2024/01/15 10:40:55;;;;;;;1.67;1.13;;;19.20;50.80;;;;;;5035886;28;20385;-63
2024/01/15 10:43:21;;;;;;;2.15;1.25;;;19.20;50.80;;;;;;5038500;28;20040;-64
2024/01/15 10:45:50;;;;;;;1.80;1.17;;;19.20;50.80;;;;;;5037477;28;20032;-65
2024/01/15 10:48:17;;;;;;;;;;;19.20;50.80;;;;;;5032982;28;20033;-63
2024/01/15 10:50:46;;;;;;;3.50;1.20;;;19.10;50.80;;;;;;5035515;28;19904;-64
2024/01/15 10:53:14;;;;;;;2.40;1.30;;;19.20;51.30;;;;;;5039103;28;20496;-65
2024/01/15 10:55:41;;;;;;;1.70;1.20;;;19.10;50.80;;;;;;5043269;28;20033;-63
2024/01/15 10:58:07;;;;;;;2.10;1.20;;;19.10;50.80;;;;;;5041117;28;20029;-68
2024/01/15 11:00:37;;;;;;;2.42;1.38;;;19.10;50.80;;;;;;5042905;28;20041;-69
2024/01/15 11:03:05;;;;;;;1.88;1.20;;;19.10;50.80;;;;;;5041899;28;20043;-69
2024/01/15 11:05:43;;;;;;;2.20;1.40;;;19.10;50.80;;;;;;5043897;28;20039;-69
2024/01/15 11:08:09;;;;;;;2.20;1.33;;;19.10;50.80;;;;;;5038476;28;20022;-68
2024/01/15 11:10:52;;;;;;;1.83;1.13;;;19.20;50.80;;;;;;5042039;28;20158;-68
2024/01/15 11:13:40;;;;;;;2.00;1.20;;;19.10;50.80;;;;;;5040680;28;20147;-68
2024/01/15 11:16:08;;;;;;;2.03;1.15;;;19.10;50.80;;;;;;5042964;28;20107;-67
2024/01/15 11:18:56;;;;;;;1.50;1.10;;;19.10;50.80;;;;;;5041120;28;20091;-67
2024/01/15 11:21:23;;;;;;;2.00;1.20;;;19.10;50.80;;;;;;5041610;28;20118;-68
2024/01/15 11:23:57;;;;;;;1.80;1.10;;;19.10;50.80;;;;;;5040008;28;20040;-68
2024/01/15 11:26:44;;;;;;;1.30;0.90;;;19.10;50.90;;;;;;5040106;28;20419;-68
2024/01/15 11:29:29;;;;;;;1.98;1.20;;;19.10;50.80;;;;;;5042238;28;20021;-68
2024/01/15 11:31:55;;;;;;;2.03;1.20;;;19.10;50.80;;;;;;5040289;28;20089;-68
2024/01/15 11:34:21;;;;;;;2.10;1.20;;;19.10;50.80;;;;;;5040446;28;20037;-68
2024/01/15 11:36:50;;;;;;;1.63;1.10;;;19.10;50.90;;;;;;5039435;28;20072;-68
2024/01/15 11:39:27;;;;;;;1.53;1.07;;;19.10;50.90;;;;;;5035371;28;20025;-68
2024/01/15 11:42:12;;;;;;;1.48;1.00;;;19.10;50.90;;;;;;5040784;28;20052;-68
2024/01/15 11:44:38;;;;;;;2.38;1.15;;;19.10;50.90;;;;;;5039208;28;20028;-68
2024/01/15 11:47:12;;;;;;;1.65;1.05;;;19.10;51.40;;;;;;5039932;28;20116;-68
2024/01/15 11:50:05;;;;;;;1.65;1.08;;;19.10;50.90;;;;;;5040193;28;20025;-70
2024/01/15 11:52:37;;;;;;;2.08;1.20;;;19.10;50.90;;;;;;5039346;28;20512;-68
2024/01/15 11:55:18;;;;;;;1.33;1.00;;;19.10;50.90;;;;;;5039908;28;20028;-68
2024/01/15 11:57:51;;;;;;;2.15;1.10;;;19.10;50.90;;;;;;5041663;28;20025;-68
2024/01/15 12:00:17;;;;;;;1.25;0.98;;;19.10;50.90;;;;;;5040037;28;20035;-68
2024/01/15 12:02:44;;;;;;;1.95;1.10;;;19.10;50.90;;;;;;5040632;28;20501;-68
2024/01/15 12:05:12;;;;;;;1.70;1.20;;;19.10;50.90;;;;;;5041327;28;20075;-69
2024/01/15 12:07:42;;;;;;;1.63;1.10;;;19.10;51.00;;;;;;5038285;28;20431;-64
2024/01/15 12:10:18;;;;;;;1.60;1.10;;;19.10;50.90;;;;;;5036906;28;20451;-64
2024/01/15 12:13:09;;;;;;;1.70;1.08;;;19.10;51.40;;;;;;5041707;28;20452;-65
2024/01/15 12:15:35;;;;;;;1.92;1.25;;;19.10;51.00;;;;;;5039890;28;21018;-64
2024/01/15 12:18:02;;;;;;;1.77;1.10;;;19.10;50.90;;;;;;5040759;28;20034;-64
2024/01/15 12:20:32;;;;;;;1.77;1.05;;;19.10;51.00;;;;;;5039734;28;20489;-65
2024/01/15 12:22:58;;;;;;;1.45;0.90;;;19.00;50.90;;;;;;5036838;28;20025;-65
2024/01/15 12:25:26;;;;;;;2.20;1.00;;;19.00;50.90;;;;;;5041346;28;20037;-64
2024/01/15 12:27:52;;;;;;;1.63;1.10;;;19.00;50.90;;;;;;5041060;28;21116;-63
2024/01/15 12:30:18;;;;;;;1.58;1.13;;;19.00;50.90;;;;;;5038001;28;20105;-64
2024/01/15 12:32:44;;;;;;;1.63;1.20;;;19.00;50.90;;;;;;5041852;28;20083;-64
2024/01/15 12:35:14;;;;;;;1.83;1.10;;;19.00;50.90;;;;;;5040634;28;20029;-63
2024/01/15 12:37:41;;;;;;;1.35;0.90;;;19.00;50.90;;;;;;5038426;28;20032;-63
2024/01/15 12:40:09;;;;;;;1.98;1.10;;;19.00;50.90;;;;;;5037330;28;20496;-63
2024/01/15 12:42:35;;;;;;;1.88;1.27;;;19.00;50.90;;;;;;5038431;28;20053;-63
2024/01/15 12:45:01;;;;;;;1.83;1.10;;;19.00;50.90;;;;;;5035669;28;20378;-63
2024/01/15 12:47:27;;;;;;;2.00;1.20;;;19.00;50.90;;;;;;5034881;28;20035;-64